sensor_id;sensor_type;location;lat;lon;timestamp;P1;durP1;ratioP1;P2;durP2;ratioP2
19036;SDS011;9651;49.138;8.900;2022-12-18T00:02:53;47.30;;;20.23;;
19036;SDS011;9651;49.138;8.900;2022-12-18T00:06:57;46.60;;;23.43;;
19036;SDS011;9651;49.138;8.900;2022-12-18T00:11:02;54.53;;;22.27;;
19036;SDS011;9651;49.138;8.900;2022-12-18T00:15:05;47.33;;;21.90;;
19036;SDS011;9651;49.138;8.900;2022-12-18T00:19:08;48.50;;;20.77;;
19036;SDS011;9651;49.138;8.900;2022-12-18T00:23:13;50.60;;;21.23;;
19036;SDS011;9651;49.138;8.900;2022-12-18T00:27:14;49.50;;;21.83;;
19036;SDS011;9651;49.138;8.900;2022-12-18T00:31:17;45.67;;;19.90;;
19036;SDS011;9651;49.138;8.900;2022-12-18T00:35:21;53.70;;;22.70;;
19036;SDS011;9651;49.138;8.900;2022-12-18T00:39:24;52.13;;;22.13;;
19036;SDS011;9651;49.138;8.900;2022-12-18T00:43:26;50.83;;;21.23;;
19036;SDS011;9651;49.138;8.900;2022-12-18T00:47:28;46.63;;;20.97;;
19036;SDS011;9651;49.138;8.900;2022-12-18T00:51:30;48.13;;;21.33;;
19036;SDS011;9651;49.138;8.900;2022-12-18T00:55:33;53.53;;;21.70;;
19036;SDS011;9651;49.138;8.900;2022-12-18T00:59:35;49.43;;;20.50;;
19036;SDS011;9651;49.138;8.900;2022-12-18T01:03:37;47.83;;;21.93;;
19036;SDS011;9651;49.138;8.900;2022-12-18T01:07:39;46.90;;;21.77;;
19036;SDS011;9651;49.138;8.900;2022-12-18T01:11:42;49.23;;;19.47;;
19036;SDS011;9651;49.138;8.900;2022-12-18T01:15:47;44.57;;;19.53;;
19036;SDS011;9651;49.138;8.900;2022-12-18T01:19:50;44.47;;;21.23;;
19036;SDS011;9651;49.138;8.900;2022-12-18T01:23:53;46.33;;;20.30;;
19036;SDS011;9651;49.138;8.900;2022-12-18T01:27:58;42.77;;;20.80;;
19036;SDS011;9651;49.138;8.900;2022-12-18T01:32:00;47.20;;;22.27;;
19036;SDS011;9651;49.138;8.900;2022-12-18T01:36:04;50.20;;;21.57;;
19036;SDS011;9651;49.138;8.900;2022-12-18T01:40:07;50.17;;;21.20;;
19036;SDS011;9651;49.138;8.900;2022-12-18T01:48:47;45.83;;;20.97;;
19036;SDS011;9651;49.138;8.900;2022-12-18T01:52:51;49.80;;;21.47;;
19036;SDS011;9651;49.138;8.900;2022-12-18T01:56:55;47.70;;;21.70;;
19036;SDS011;9651;49.138;8.900;2022-12-18T02:00:57;48.90;;;20.47;;
19036;SDS011;9651;49.138;8.900;2022-12-18T02:05:00;46.33;;;20.60;;
19036;SDS011;9651;49.138;8.900;2022-12-18T02:09:06;44.20;;;20.20;;
19036;SDS011;9651;49.138;8.900;2022-12-18T02:13:12;56.00;;;22.70;;
19036;SDS011;9651;49.138;8.900;2022-12-18T02:17:21;52.93;;;22.20;;
19036;SDS011;9651;49.138;8.900;2022-12-18T02:21:28;41.73;;;20.40;;
19036;SDS011;9651;49.138;8.900;2022-12-18T02:25:40;55.47;;;21.13;;
19036;SDS011;9651;49.138;8.900;2022-12-18T02:30:03;44.40;;;21.50;;
19036;SDS011;9651;49.138;8.900;2022-12-18T02:34:07;46.13;;;17.70;;
19036;SDS011;9651;49.138;8.900;2022-12-18T02:38:12;37.97;;;19.63;;
19036;SDS011;9651;49.138;8.900;2022-12-18T02:42:19;43.53;;;19.67;;
19036;SDS011;9651;49.138;8.900;2022-12-18T02:46:27;45.20;;;21.23;;
19036;SDS011;9651;49.138;8.900;2022-12-18T02:50:35;49.43;;;21.07;;
19036;SDS011;9651;49.138;8.900;2022-12-18T02:54:47;50.07;;;21.47;;
19036;SDS011;9651;49.138;8.900;2022-12-18T02:58:59;47.03;;;19.33;;
19036;SDS011;9651;49.138;8.900;2022-12-18T03:03:13;41.13;;;20.23;;
19036;SDS011;9651;49.138;8.900;2022-12-18T03:07:23;46.60;;;20.70;;
19036;SDS011;9651;49.138;8.900;2022-12-18T03:11:31;45.37;;;19.33;;
19036;SDS011;9651;49.138;8.900;2022-12-18T03:16:05;47.27;;;19.77;;
19036;SDS011;9651;49.138;8.900;2022-12-18T03:20:11;44.77;;;18.70;;
19036;SDS011;9651;49.138;8.900;2022-12-18T03:24:15;44.83;;;19.23;;
19036;SDS011;9651;49.138;8.900;2022-12-18T03:28:21;45.03;;;20.67;;
19036;SDS011;9651;49.138;8.900;2022-12-18T03:32:33;45.77;;;20.23;;
19036;SDS011;9651;49.138;8.900;2022-12-18T03:36:40;45.33;;;19.30;;
19036;SDS011;9651;49.138;8.900;2022-12-18T03:40:53;50.83;;;20.90;;
19036;SDS011;9651;49.138;8.900;2022-12-18T03:45:03;42.13;;;19.20;;
19036;SDS011;9651;49.138;8.900;2022-12-18T03:49:14;45.33;;;20.00;;
19036;SDS011;9651;49.138;8.900;2022-12-18T03:53:28;51.57;;;21.00;;
19036;SDS011;9651;49.138;8.900;2022-12-18T03:57:37;48.17;;;20.33;;
19036;SDS011;9651;49.138;8.900;2022-12-18T04:01:42;41.90;;;19.47;;
19036;SDS011;9651;49.138;8.900;2022-12-18T04:05:51;47.47;;;20.57;;
19036;SDS011;9651;49.138;8.900;2022-12-18T04:09:56;39.47;;;17.70;;
19036;SDS011;9651;49.138;8.900;2022-12-18T04:14:01;42.90;;;19.20;;
19036;SDS011;9651;49.138;8.900;2022-12-18T04:18:05;40.03;;;17.83;;
19036;SDS011;9651;49.138;8.900;2022-12-18T04:22:16;50.33;;;19.97;;
19036;SDS011;9651;49.138;8.900;2022-12-18T04:26:22;45.70;;;18.97;;
19036;SDS011;9651;49.138;8.900;2022-12-18T04:30:44;46.13;;;20.63;;
19036;SDS011;9651;49.138;8.900;2022-12-18T04:34:56;39.80;;;17.50;;
19036;SDS011;9651;49.138;8.900;2022-12-18T04:38:59;38.97;;;17.77;;
19036;SDS011;9651;49.138;8.900;2022-12-18T04:43:02;44.70;;;19.70;;
19036;SDS011;9651;49.138;8.900;2022-12-18T04:47:04;40.50;;;19.03;;
19036;SDS011;9651;49.138;8.900;2022-12-18T04:51:06;50.87;;;20.40;;
19036;SDS011;9651;49.138;8.900;2022-12-18T04:55:09;41.30;;;19.73;;
19036;SDS011;9651;49.138;8.900;2022-12-18T04:59:11;43.30;;;20.10;;
19036;SDS011;9651;49.138;8.900;2022-12-18T05:03:13;45.37;;;19.70;;
19036;SDS011;9651;49.138;8.900;2022-12-18T05:07:15;40.60;;;18.87;;
19036;SDS011;9651;49.138;8.900;2022-12-18T05:11:18;43.83;;;20.87;;
19036;SDS011;9651;49.138;8.900;2022-12-18T05:15:20;44.93;;;18.97;;
19036;SDS011;9651;49.138;8.900;2022-12-18T05:19:22;40.77;;;19.07;;
19036;SDS011;9651;49.138;8.900;2022-12-18T05:23:24;42.87;;;18.60;;
19036;SDS011;9651;49.138;8.900;2022-12-18T05:27:28;42.77;;;17.80;;
19036;SDS011;9651;49.138;8.900;2022-12-18T05:31:29;38.30;;;17.97;;
19036;SDS011;9651;49.138;8.900;2022-12-18T05:35:31;40.30;;;17.90;;
19036;SDS011;9651;49.138;8.900;2022-12-18T05:39:33;46.03;;;18.47;;
19036;SDS011;9651;49.138;8.900;2022-12-18T05:43:37;40.60;;;16.17;;
19036;SDS011;9651;49.138;8.900;2022-12-18T05:47:41;39.07;;;17.17;;
19036;SDS011;9651;49.138;8.900;2022-12-18T05:51:43;44.80;;;17.60;;
19036;SDS011;9651;49.138;8.900;2022-12-18T05:55:45;37.73;;;17.40;;
19036;SDS011;9651;49.138;8.900;2022-12-18T05:59:49;46.50;;;17.73;;
19036;SDS011;9651;49.138;8.900;2022-12-18T06:03:50;43.60;;;18.87;;
19036;SDS011;9651;49.138;8.900;2022-12-18T06:07:52;50.80;;;18.30;;
19036;SDS011;9651;49.138;8.900;2022-12-18T06:11:54;43.33;;;17.97;;
19036;SDS011;9651;49.138;8.900;2022-12-18T06:15:57;42.10;;;17.77;;
19036;SDS011;9651;49.138;8.900;2022-12-18T06:20:03;45.53;;;20.10;;
19036;SDS011;9651;49.138;8.900;2022-12-18T06:24:06;42.03;;;19.50;;
19036;SDS011;9651;49.138;8.900;2022-12-18T06:28:08;49.03;;;19.40;;
19036;SDS011;9651;49.138;8.900;2022-12-18T06:32:11;41.20;;;16.57;;
19036;SDS011;9651;49.138;8.900;2022-12-18T06:36:13;47.63;;;18.73;;
19036;SDS011;9651;49.138;8.900;2022-12-18T06:40:15;38.40;;;16.93;;
19036;SDS011;9651;49.138;8.900;2022-12-18T06:44:18;37.03;;;15.57;;
19036;SDS011;9651;49.138;8.900;2022-12-18T06:48:21;40.53;;;16.40;;
19036;SDS011;9651;49.138;8.900;2022-12-18T06:52:23;45.67;;;17.83;;
19036;SDS011;9651;49.138;8.900;2022-12-18T06:56:24;38.97;;;17.03;;
19036;SDS011;9651;49.138;8.900;2022-12-18T07:00:26;42.37;;;17.17;;
19036;SDS011;9651;49.138;8.900;2022-12-18T07:04:30;34.77;;;15.77;;
19036;SDS011;9651;49.138;8.900;2022-12-18T07:08:32;47.50;;;19.43;;
19036;SDS011;9651;49.138;8.900;2022-12-18T07:12:34;41.87;;;17.67;;
19036;SDS011;9651;49.138;8.900;2022-12-18T07:16:36;42.93;;;19.57;;
19036;SDS011;9651;49.138;8.900;2022-12-18T07:20:39;50.90;;;19.60;;
19036;SDS011;9651;49.138;8.900;2022-12-18T07:24:41;51.60;;;20.33;;
19036;SDS011;9651;49.138;8.900;2022-12-18T07:28:43;51.73;;;20.37;;
19036;SDS011;9651;49.138;8.900;2022-12-18T07:32:45;43.97;;;20.10;;
19036;SDS011;9651;49.138;8.900;2022-12-18T07:36:48;48.03;;;19.93;;
19036;SDS011;9651;49.138;8.900;2022-12-18T07:40:50;52.27;;;22.40;;
19036;SDS011;9651;49.138;8.900;2022-12-18T07:44:52;46.53;;;22.80;;
19036;SDS011;9651;49.138;8.900;2022-12-18T07:48:54;55.93;;;22.37;;
19036;SDS011;9651;49.138;8.900;2022-12-18T07:52:57;49.63;;;24.17;;
19036;SDS011;9651;49.138;8.900;2022-12-18T07:57:03;53.43;;;22.83;;
19036;SDS011;9651;49.138;8.900;2022-12-18T08:01:05;52.23;;;21.97;;
19036;SDS011;9651;49.138;8.900;2022-12-18T08:05:08;51.60;;;21.70;;
19036;SDS011;9651;49.138;8.900;2022-12-18T08:09:12;51.97;;;22.83;;
19036;SDS011;9651;49.138;8.900;2022-12-18T08:13:13;48.23;;;19.37;;
19036;SDS011;9651;49.138;8.900;2022-12-18T08:17:15;52.10;;;22.37;;
19036;SDS011;9651;49.138;8.900;2022-12-18T08:21:18;55.37;;;22.60;;
19036;SDS011;9651;49.138;8.900;2022-12-18T08:25:24;44.20;;;20.57;;
19036;SDS011;9651;49.138;8.900;2022-12-18T08:29:26;51.70;;;21.00;;
19036;SDS011;9651;49.138;8.900;2022-12-18T08:33:28;48.33;;;21.57;;
19036;SDS011;9651;49.138;8.900;2022-12-18T08:37:29;51.70;;;21.97;;
19036;SDS011;9651;49.138;8.900;2022-12-18T08:41:33;46.50;;;19.40;;
19036;SDS011;9651;49.138;8.900;2022-12-18T08:45:34;51.00;;;20.33;;
19036;SDS011;9651;49.138;8.900;2022-12-18T08:49:37;51.37;;;21.40;;
19036;SDS011;9651;49.138;8.900;2022-12-18T08:53:38;53.70;;;22.20;;
19036;SDS011;9651;49.138;8.900;2022-12-18T08:57:41;46.77;;;19.83;;
19036;SDS011;9651;49.138;8.900;2022-12-18T09:01:43;43.43;;;17.80;;
19036;SDS011;9651;49.138;8.900;2022-12-18T09:05:46;42.30;;;18.27;;
19036;SDS011;9651;49.138;8.900;2022-12-18T09:09:48;47.23;;;19.50;;
19036;SDS011;9651;49.138;8.900;2022-12-18T09:13:51;44.40;;;18.87;;
19036;SDS011;9651;49.138;8.900;2022-12-18T09:17:54;45.20;;;17.97;;
19036;SDS011;9651;49.138;8.900;2022-12-18T09:21:55;46.27;;;18.13;;
19036;SDS011;9651;49.138;8.900;2022-12-18T09:25:58;45.87;;;17.37;;
19036;SDS011;9651;49.138;8.900;2022-12-18T09:30:01;44.80;;;16.73;;
19036;SDS011;9651;49.138;8.900;2022-12-18T09:34:04;40.60;;;17.70;;
19036;SDS011;9651;49.138;8.900;2022-12-18T09:38:06;42.23;;;18.33;;
19036;SDS011;9651;49.138;8.900;2022-12-18T09:42:10;45.83;;;17.07;;
19036;SDS011;9651;49.138;8.900;2022-12-18T09:46:21;40.73;;;17.13;;
19036;SDS011;9651;49.138;8.900;2022-12-18T09:50:29;37.97;;;15.77;;
19036;SDS011;9651;49.138;8.900;2022-12-18T09:54:35;42.77;;;17.33;;
19036;SDS011;9651;49.138;8.900;2022-12-18T09:58:44;45.23;;;17.67;;
19036;SDS011;9651;49.138;8.900;2022-12-18T10:02:52;40.10;;;16.93;;
19036;SDS011;9651;49.138;8.900;2022-12-18T10:07:01;42.13;;;17.20;;
19036;SDS011;9651;49.138;8.900;2022-12-18T10:11:24;42.20;;;16.70;;
19036;SDS011;9651;49.138;8.900;2022-12-18T10:15:44;41.93;;;17.37;;
19036;SDS011;9651;49.138;8.900;2022-12-18T10:19:58;42.13;;;20.20;;
19036;SDS011;9651;49.138;8.900;2022-12-18T10:24:05;39.67;;;17.00;;
19036;SDS011;9651;49.138;8.900;2022-12-18T10:28:17;42.00;;;16.63;;
19036;SDS011;9651;49.138;8.900;2022-12-18T10:32:21;36.43;;;16.73;;
19036;SDS011;9651;49.138;8.900;2022-12-18T10:36:26;38.23;;;18.17;;
19036;SDS011;9651;49.138;8.900;2022-12-18T10:40:28;35.60;;;16.40;;
19036;SDS011;9651;49.138;8.900;2022-12-18T10:44:30;40.43;;;16.53;;
19036;SDS011;9651;49.138;8.900;2022-12-18T10:48:33;37.70;;;17.77;;
19036;SDS011;9651;49.138;8.900;2022-12-18T10:52:38;39.73;;;17.40;;
19036;SDS011;9651;49.138;8.900;2022-12-18T10:56:40;40.03;;;18.27;;
19036;SDS011;9651;49.138;8.900;2022-12-18T11:00:43;37.43;;;16.70;;
19036;SDS011;9651;49.138;8.900;2022-12-18T11:04:49;41.20;;;17.90;;
19036;SDS011;9651;49.138;8.900;2022-12-18T11:08:58;37.53;;;16.77;;
19036;SDS011;9651;49.138;8.900;2022-12-18T11:13:11;41.67;;;17.87;;
19036;SDS011;9651;49.138;8.900;2022-12-18T11:17:18;40.60;;;18.33;;
19036;SDS011;9651;49.138;8.900;2022-12-18T11:21:21;39.77;;;16.90;;
19036;SDS011;9651;49.138;8.900;2022-12-18T11:25:24;40.37;;;17.80;;
19036;SDS011;9651;49.138;8.900;2022-12-18T11:29:32;35.43;;;17.37;;
19036;SDS011;9651;49.138;8.900;2022-12-18T11:33:35;39.57;;;17.57;;
19036;SDS011;9651;49.138;8.900;2022-12-18T11:37:41;36.67;;;17.70;;
19036;SDS011;9651;49.138;8.900;2022-12-18T11:41:50;37.80;;;17.20;;
19036;SDS011;9651;49.138;8.900;2022-12-18T11:46:12;41.30;;;17.20;;
19036;SDS011;9651;49.138;8.900;2022-12-18T11:50:17;42.30;;;17.63;;
19036;SDS011;9651;49.138;8.900;2022-12-18T11:54:22;44.07;;;17.50;;
19036;SDS011;9651;49.138;8.900;2022-12-18T11:58:27;46.07;;;17.73;;
19036;SDS011;9651;49.138;8.900;2022-12-18T12:02:47;40.30;;;17.17;;
19036;SDS011;9651;49.138;8.900;2022-12-18T12:07:19;43.00;;;17.27;;
19036;SDS011;9651;49.138;8.900;2022-12-18T12:11:31;48.27;;;17.87;;
19036;SDS011;9651;49.138;8.900;2022-12-18T12:15:44;43.20;;;17.20;;
19036;SDS011;9651;49.138;8.900;2022-12-18T12:19:58;46.03;;;19.33;;
19036;SDS011;9651;49.138;8.900;2022-12-18T12:24:09;44.53;;;17.87;;
19036;SDS011;9651;49.138;8.900;2022-12-18T12:28:24;40.87;;;17.67;;
19036;SDS011;9651;49.138;8.900;2022-12-18T12:32:52;42.73;;;17.30;;
19036;SDS011;9651;49.138;8.900;2022-12-18T12:37:08;44.70;;;18.63;;
19036;SDS011;9651;49.138;8.900;2022-12-18T12:41:21;38.90;;;16.80;;
19036;SDS011;9651;49.138;8.900;2022-12-18T12:45:45;40.57;;;17.07;;
19036;SDS011;9651;49.138;8.900;2022-12-18T12:49:51;38.53;;;16.90;;
19036;SDS011;9651;49.138;8.900;2022-12-18T12:53:54;41.30;;;17.23;;
19036;SDS011;9651;49.138;8.900;2022-12-18T12:57:59;34.77;;;16.17;;
19036;SDS011;9651;49.138;8.900;2022-12-18T13:02:10;39.27;;;17.60;;
19036;SDS011;9651;49.138;8.900;2022-12-18T13:06:23;36.10;;;16.00;;
19036;SDS011;9651;49.138;8.900;2022-12-18T13:10:34;38.27;;;15.37;;
19036;SDS011;9651;49.138;8.900;2022-12-18T13:14:37;54.10;;;20.13;;
19036;SDS011;9651;49.138;8.900;2022-12-18T13:18:43;39.47;;;17.43;;
19036;SDS011;9651;49.138;8.900;2022-12-18T13:22:51;43.37;;;17.70;;
19036;SDS011;9651;49.138;8.900;2022-12-18T13:26:55;41.33;;;17.10;;
19036;SDS011;9651;49.138;8.900;2022-12-18T13:30:57;41.57;;;17.00;;
19036;SDS011;9651;49.138;8.900;2022-12-18T13:39:36;44.90;;;17.73;;
19036;SDS011;9651;49.138;8.900;2022-12-18T13:43:39;38.97;;;16.63;;
19036;SDS011;9651;49.138;8.900;2022-12-18T13:47:43;37.33;;;16.87;;
19036;SDS011;9651;49.138;8.900;2022-12-18T13:51:46;44.03;;;17.97;;
19036;SDS011;9651;49.138;8.900;2022-12-18T13:55:51;47.07;;;17.87;;
19036;SDS011;9651;49.138;8.900;2022-12-18T13:59:53;44.73;;;19.33;;
19036;SDS011;9651;49.138;8.900;2022-12-18T14:04:08;43.03;;;17.80;;
19036;SDS011;9651;49.138;8.900;2022-12-18T14:08:12;43.33;;;18.50;;
19036;SDS011;9651;49.138;8.900;2022-12-18T14:12:17;44.33;;;18.87;;
19036;SDS011;9651;49.138;8.900;2022-12-18T14:16:39;44.37;;;18.40;;
19036;SDS011;9651;49.138;8.900;2022-12-18T14:20:43;50.33;;;20.20;;
19036;SDS011;9651;49.138;8.900;2022-12-18T14:25:04;52.73;;;18.27;;
19036;SDS011;9651;49.138;8.900;2022-12-18T14:29:24;44.37;;;18.97;;
19036;SDS011;9651;49.138;8.900;2022-12-18T14:33:27;44.40;;;18.17;;
19036;SDS011;9651;49.138;8.900;2022-12-18T14:37:29;51.33;;;19.30;;
19036;SDS011;9651;49.138;8.900;2022-12-18T14:41:31;40.97;;;17.00;;
19036;SDS011;9651;49.138;8.900;2022-12-18T14:45:35;42.27;;;17.20;;
19036;SDS011;9651;49.138;8.900;2022-12-18T14:49:42;49.20;;;19.80;;
19036;SDS011;9651;49.138;8.900;2022-12-18T14:53:45;44.83;;;18.60;;
19036;SDS011;9651;49.138;8.900;2022-12-18T14:57:49;46.37;;;18.03;;
19036;SDS011;9651;49.138;8.900;2022-12-18T15:01:58;53.00;;;20.37;;
19036;SDS011;9651;49.138;8.900;2022-12-18T15:06:17;52.13;;;19.37;;
19036;SDS011;9651;49.138;8.900;2022-12-18T15:10:27;48.60;;;18.43;;
19036;SDS011;9651;49.138;8.900;2022-12-18T15:14:31;46.17;;;18.93;;
19036;SDS011;9651;49.138;8.900;2022-12-18T15:18:38;59.20;;;20.27;;
19036;SDS011;9651;49.138;8.900;2022-12-18T15:22:43;56.73;;;22.50;;
19036;SDS011;9651;49.138;8.900;2022-12-18T15:26:48;48.97;;;20.00;;
19036;SDS011;9651;49.138;8.900;2022-12-18T15:31:04;62.63;;;26.57;;
19036;SDS011;9651;49.138;8.900;2022-12-18T15:35:11;49.40;;;22.90;;
19036;SDS011;9651;49.138;8.900;2022-12-18T15:39:16;51.67;;;21.73;;
19036;SDS011;9651;49.138;8.900;2022-12-18T15:43:17;53.63;;;20.40;;
19036;SDS011;9651;49.138;8.900;2022-12-18T15:47:36;50.17;;;21.20;;
19036;SDS011;9651;49.138;8.900;2022-12-18T15:51:39;56.27;;;21.60;;
19036;SDS011;9651;49.138;8.900;2022-12-18T15:55:41;48.83;;;19.77;;
19036;SDS011;9651;49.138;8.900;2022-12-18T16:00:01;58.33;;;21.73;;
19036;SDS011;9651;49.138;8.900;2022-12-18T16:04:05;58.90;;;24.03;;
19036;SDS011;9651;49.138;8.900;2022-12-18T16:08:08;52.70;;;20.47;;
19036;SDS011;9651;49.138;8.900;2022-12-18T16:12:14;43.83;;;18.30;;
19036;SDS011;9651;49.138;8.900;2022-12-18T16:16:18;46.27;;;19.40;;
19036;SDS011;9651;49.138;8.900;2022-12-18T16:20:20;38.73;;;16.30;;
19036;SDS011;9651;49.138;8.900;2022-12-18T16:24:25;40.70;;;17.93;;
19036;SDS011;9651;49.138;8.900;2022-12-18T16:28:28;46.83;;;19.17;;
19036;SDS011;9651;49.138;8.900;2022-12-18T16:32:30;45.13;;;19.03;;
19036;SDS011;9651;49.138;8.900;2022-12-18T16:36:32;50.20;;;18.83;;
19036;SDS011;9651;49.138;8.900;2022-12-18T16:40:35;42.73;;;18.10;;
19036;SDS011;9651;49.138;8.900;2022-12-18T16:45:02;35.03;;;15.00;;
19036;SDS011;9651;49.138;8.900;2022-12-18T16:49:05;46.97;;;16.57;;
19036;SDS011;9651;49.138;8.900;2022-12-18T16:53:07;41.50;;;17.17;;
19036;SDS011;9651;49.138;8.900;2022-12-18T16:57:11;45.63;;;17.23;;
19036;SDS011;9651;49.138;8.900;2022-12-18T17:01:14;51.67;;;19.97;;
19036;SDS011;9651;49.138;8.900;2022-12-18T17:05:16;49.90;;;20.80;;
19036;SDS011;9651;49.138;8.900;2022-12-18T17:09:18;55.90;;;20.37;;
19036;SDS011;9651;49.138;8.900;2022-12-18T17:13:26;41.03;;;16.53;;
19036;SDS011;9651;49.138;8.900;2022-12-18T17:17:28;45.63;;;17.30;;
19036;SDS011;9651;49.138;8.900;2022-12-18T17:21:30;44.27;;;18.80;;
19036;SDS011;9651;49.138;8.900;2022-12-18T17:25:32;47.47;;;18.63;;
19036;SDS011;9651;49.138;8.900;2022-12-18T17:29:35;41.47;;;17.40;;
19036;SDS011;9651;49.138;8.900;2022-12-18T17:33:37;43.47;;;17.20;;
19036;SDS011;9651;49.138;8.900;2022-12-18T17:37:40;44.20;;;17.33;;
19036;SDS011;9651;49.138;8.900;2022-12-18T17:41:42;38.90;;;16.50;;
19036;SDS011;9651;49.138;8.900;2022-12-18T17:45:45;38.73;;;16.67;;
19036;SDS011;9651;49.138;8.900;2022-12-18T17:49:47;41.67;;;17.00;;
19036;SDS011;9651;49.138;8.900;2022-12-18T17:53:48;43.43;;;17.27;;
19036;SDS011;9651;49.138;8.900;2022-12-18T17:57:50;41.00;;;17.63;;
19036;SDS011;9651;49.138;8.900;2022-12-18T18:01:54;52.90;;;20.17;;
19036;SDS011;9651;49.138;8.900;2022-12-18T18:05:56;45.37;;;18.17;;
19036;SDS011;9651;49.138;8.900;2022-12-18T18:09:59;40.40;;;16.07;;
19036;SDS011;9651;49.138;8.900;2022-12-18T18:14:01;43.67;;;17.70;;
19036;SDS011;9651;49.138;8.900;2022-12-18T18:18:06;45.33;;;18.30;;
19036;SDS011;9651;49.138;8.900;2022-12-18T18:22:08;45.63;;;18.73;;
19036;SDS011;9651;49.138;8.900;2022-12-18T18:26:09;40.10;;;16.33;;
19036;SDS011;9651;49.138;8.900;2022-12-18T18:30:12;36.13;;;16.43;;
19036;SDS011;9651;49.138;8.900;2022-12-18T18:34:16;41.63;;;17.10;;
19036;SDS011;9651;49.138;8.900;2022-12-18T18:38:19;42.97;;;19.53;;
19036;SDS011;9651;49.138;8.900;2022-12-18T18:42:21;43.40;;;18.80;;
19036;SDS011;9651;49.138;8.900;2022-12-18T18:46:23;46.87;;;20.20;;
19036;SDS011;9651;49.138;8.900;2022-12-18T18:50:27;45.17;;;18.57;;
19036;SDS011;9651;49.138;8.900;2022-12-18T18:54:28;42.10;;;17.37;;
19036;SDS011;9651;49.138;8.900;2022-12-18T18:58:30;40.77;;;16.13;;
19036;SDS011;9651;49.138;8.900;2022-12-18T19:02:33;46.87;;;18.17;;
19036;SDS011;9651;49.138;8.900;2022-12-18T19:06:36;50.07;;;20.60;;
19036;SDS011;9651;49.138;8.900;2022-12-18T19:10:38;38.63;;;16.20;;
19036;SDS011;9651;49.138;8.900;2022-12-18T19:14:40;43.60;;;17.83;;
19036;SDS011;9651;49.138;8.900;2022-12-18T19:18:43;40.33;;;16.83;;
19036;SDS011;9651;49.138;8.900;2022-12-18T19:22:46;40.50;;;17.77;;
19036;SDS011;9651;49.138;8.900;2022-12-18T19:26:48;48.10;;;18.60;;
19036;SDS011;9651;49.138;8.900;2022-12-18T19:30:51;48.87;;;21.17;;
19036;SDS011;9651;49.138;8.900;2022-12-18T19:34:54;36.13;;;15.10;;
19036;SDS011;9651;49.138;8.900;2022-12-18T19:38:58;45.40;;;17.97;;
19036;SDS011;9651;49.138;8.900;2022-12-18T19:43:01;41.60;;;18.37;;
19036;SDS011;9651;49.138;8.900;2022-12-18T19:47:03;40.70;;;16.90;;
19036;SDS011;9651;49.138;8.900;2022-12-18T19:51:06;37.27;;;15.23;;
19036;SDS011;9651;49.138;8.900;2022-12-18T19:55:10;45.93;;;18.60;;
19036;SDS011;9651;49.138;8.900;2022-12-18T19:59:12;46.53;;;18.73;;
19036;SDS011;9651;49.138;8.900;2022-12-18T20:03:14;40.50;;;17.10;;
19036;SDS011;9651;49.138;8.900;2022-12-18T20:07:16;44.23;;;17.93;;
19036;SDS011;9651;49.138;8.900;2022-12-18T20:11:19;45.40;;;18.57;;
19036;SDS011;9651;49.138;8.900;2022-12-18T20:15:21;36.80;;;15.73;;
19036;SDS011;9651;49.138;8.900;2022-12-18T20:19:23;48.27;;;17.77;;
19036;SDS011;9651;49.138;8.900;2022-12-18T20:23:25;53.17;;;20.43;;
19036;SDS011;9651;49.138;8.900;2022-12-18T20:27:28;43.80;;;18.07;;
19036;SDS011;9651;49.138;8.900;2022-12-18T20:31:30;37.97;;;16.27;;
19036;SDS011;9651;49.138;8.900;2022-12-18T20:35:32;43.10;;;17.13;;
19036;SDS011;9651;49.138;8.900;2022-12-18T20:39:34;43.67;;;19.00;;
19036;SDS011;9651;49.138;8.900;2022-12-18T20:43:37;41.97;;;18.40;;
19036;SDS011;9651;49.138;8.900;2022-12-18T20:47:39;46.60;;;17.47;;
19036;SDS011;9651;49.138;8.900;2022-12-18T20:51:41;42.83;;;17.37;;
19036;SDS011;9651;49.138;8.900;2022-12-18T20:55:43;40.53;;;16.87;;
19036;SDS011;9651;49.138;8.900;2022-12-18T20:59:46;44.13;;;17.27;;
19036;SDS011;9651;49.138;8.900;2022-12-18T21:03:48;38.30;;;15.73;;
19036;SDS011;9651;49.138;8.900;2022-12-18T21:07:50;42.17;;;17.77;;
19036;SDS011;9651;49.138;8.900;2022-12-18T21:11:52;33.83;;;16.37;;
19036;SDS011;9651;49.138;8.900;2022-12-18T21:16:13;40.50;;;16.37;;
19036;SDS011;9651;49.138;8.900;2022-12-18T21:20:15;42.07;;;16.63;;
19036;SDS011;9651;49.138;8.900;2022-12-18T21:24:17;38.93;;;15.60;;
19036;SDS011;9651;49.138;8.900;2022-12-18T21:28:19;35.67;;;15.63;;
19036;SDS011;9651;49.138;8.900;2022-12-18T21:32:22;43.93;;;18.47;;
19036;SDS011;9651;49.138;8.900;2022-12-18T21:36:24;39.23;;;16.43;;
19036;SDS011;9651;49.138;8.900;2022-12-18T21:40:26;42.83;;;17.07;;
19036;SDS011;9651;49.138;8.900;2022-12-18T21:44:28;40.73;;;18.10;;
19036;SDS011;9651;49.138;8.900;2022-12-18T21:48:31;36.40;;;16.37;;
19036;SDS011;9651;49.138;8.900;2022-12-18T21:52:33;40.37;;;16.40;;
19036;SDS011;9651;49.138;8.900;2022-12-18T21:56:45;38.10;;;15.63;;
19036;SDS011;9651;49.138;8.900;2022-12-18T22:00:48;38.53;;;16.43;;
19036;SDS011;9651;49.138;8.900;2022-12-18T22:04:52;46.63;;;17.80;;
19036;SDS011;9651;49.138;8.900;2022-12-18T22:08:53;46.27;;;16.53;;
19036;SDS011;9651;49.138;8.900;2022-12-18T22:12:55;38.63;;;16.97;;
19036;SDS011;9651;49.138;8.900;2022-12-18T22:16:57;40.63;;;16.40;;
19036;SDS011;9651;49.138;8.900;2022-12-18T22:21:01;43.00;;;16.23;;
19036;SDS011;9651;49.138;8.900;2022-12-18T22:25:03;42.87;;;16.27;;
19036;SDS011;9651;49.138;8.900;2022-12-18T22:29:05;41.23;;;16.17;;
19036;SDS011;9651;49.138;8.900;2022-12-18T22:33:25;42.30;;;17.07;;
19036;SDS011;9651;49.138;8.900;2022-12-18T22:37:29;47.60;;;18.17;;
19036;SDS011;9651;49.138;8.900;2022-12-18T22:41:31;40.33;;;15.73;;
19036;SDS011;9651;49.138;8.900;2022-12-18T22:45:32;47.83;;;18.13;;
19036;SDS011;9651;49.138;8.900;2022-12-18T22:49:35;42.53;;;16.37;;
19036;SDS011;9651;49.138;8.900;2022-12-18T22:53:39;39.67;;;17.47;;
19036;SDS011;9651;49.138;8.900;2022-12-18T22:57:40;42.97;;;17.03;;
19036;SDS011;9651;49.138;8.900;2022-12-18T23:01:42;37.60;;;14.17;;
19036;SDS011;9651;49.138;8.900;2022-12-18T23:05:45;41.57;;;16.13;;
19036;SDS011;9651;49.138;8.900;2022-12-18T23:09:49;40.67;;;16.43;;
19036;SDS011;9651;49.138;8.900;2022-12-18T23:13:51;44.27;;;16.53;;
19036;SDS011;9651;49.138;8.900;2022-12-18T23:17:54;41.53;;;16.23;;
19036;SDS011;9651;49.138;8.900;2022-12-18T23:21:57;41.33;;;16.90;;
19036;SDS011;9651;49.138;8.900;2022-12-18T23:26:03;38.60;;;15.90;;
19036;SDS011;9651;49.138;8.900;2022-12-18T23:30:06;44.97;;;16.67;;
19036;SDS011;9651;49.138;8.900;2022-12-18T23:34:09;40.47;;;16.87;;
19036;SDS011;9651;49.138;8.900;2022-12-18T23:38:13;43.93;;;16.23;;
19036;SDS011;9651;49.138;8.900;2022-12-18T23:42:16;35.07;;;15.67;;
19036;SDS011;9651;49.138;8.900;2022-12-18T23:46:19;41.87;;;16.30;;
19036;SDS011;9651;49.138;8.900;2022-12-18T23:50:22;39.53;;;15.27;;
19036;SDS011;9651;49.138;8.900;2022-12-18T23:54:24;40.67;;;16.93;;
19036;SDS011;9651;49.138;8.900;2022-12-18T23:58:27;43.07;;;17.17;;
